sensor_id;sensor_type;location;lat;lon;timestamp;pressure;altitude;pressure_sealevel;temperature;humidity
54920;BME280;63804;53.120;8.764;2023-02-08T00:00:00;104159.50;;;1.15;44.52
54920;BME280;63804;53.120;8.764;2023-02-08T00:02:26;104158.38;;;1.02;44.55
54920;BME280;63804;53.120;8.764;2023-02-08T00:04:52;104158.13;;;1.19;44.29
54920;BME280;63804;53.120;8.764;2023-02-08T00:07:18;104150.56;;;1.07;44.53
54920;BME280;63804;53.120;8.764;2023-02-08T00:09:44;104145.56;;;0.83;44.91
54920;BME280;63804;53.120;8.764;2023-02-08T00:12:10;104153.44;;;0.63;45.39
54920;BME280;63804;53.120;8.764;2023-02-08T00:14:35;104155.25;;;0.41;45.97
54920;BME280;63804;53.120;8.764;2023-02-08T00:17:01;104147.50;;;0.31;46.07
54920;BME280;63804;53.120;8.764;2023-02-08T00:19:27;104148.00;;;0.19;46.32
54920;BME280;63804;53.120;8.764;2023-02-08T00:21:53;104152.53;;;0.19;46.37
54920;BME280;63804;53.120;8.764;2023-02-08T00:24:19;104146.78;;;0.22;46.64
54920;BME280;63804;53.120;8.764;2023-02-08T00:26:44;104148.63;;;0.36;45.68
54920;BME280;63804;53.120;8.764;2023-02-08T00:29:10;104138.25;;;0.33;45.92
54920;BME280;63804;53.120;8.764;2023-02-08T00:31:36;104143.56;;;0.48;45.74
54920;BME280;63804;53.120;8.764;2023-02-08T00:34:02;104141.75;;;0.34;45.89
54920;BME280;63804;53.120;8.764;2023-02-08T00:36:27;104138.81;;;0.29;46.08
54920;BME280;63804;53.120;8.764;2023-02-08T00:38:53;104134.78;;;0.03;46.31
54920;BME280;63804;53.120;8.764;2023-02-08T00:41:19;104130.34;;;-0.05;46.69
54920;BME280;63804;53.120;8.764;2023-02-08T00:43:45;104127.09;;;-0.00;46.39
54920;BME280;63804;53.120;8.764;2023-02-08T00:46:11;104127.28;;;-0.02;46.21
54920;BME280;63804;53.120;8.764;2023-02-08T00:48:37;104124.16;;;-0.05;46.53
54920;BME280;63804;53.120;8.764;2023-02-08T00:51:04;104129.00;;;0.21;45.64
54920;BME280;63804;53.120;8.764;2023-02-08T00:53:37;104127.66;;;-0.05;46.08
54920;BME280;63804;53.120;8.764;2023-02-08T00:56:04;104125.78;;;-0.04;45.96
54920;BME280;63804;53.120;8.764;2023-02-08T00:58:30;104115.44;;;-0.07;46.37
54920;BME280;63804;53.120;8.764;2023-02-08T01:00:56;104115.25;;;0.31;45.58
54920;BME280;63804;53.120;8.764;2023-02-08T01:03:22;104115.97;;;0.61;45.04
54920;BME280;63804;53.120;8.764;2023-02-08T01:05:49;104113.94;;;0.42;45.02
54920;BME280;63804;53.120;8.764;2023-02-08T01:08:15;104115.97;;;0.18;45.37
54920;BME280;63804;53.120;8.764;2023-02-08T01:10:41;104113.38;;;0.10;45.75
54920;BME280;63804;53.120;8.764;2023-02-08T01:13:07;104110.25;;;0.06;45.85
54920;BME280;63804;53.120;8.764;2023-02-08T01:15:33;104107.66;;;-0.02;45.88
54920;BME280;63804;53.120;8.764;2023-02-08T01:17:59;104105.25;;;-0.12;45.90
54920;BME280;63804;53.120;8.764;2023-02-08T01:20:25;104110.78;;;0.16;45.51
54920;BME280;63804;53.120;8.764;2023-02-08T01:22:51;104111.38;;;0.33;45.15
54920;BME280;63804;53.120;8.764;2023-02-08T01:25:16;104113.16;;;0.69;44.21
54920;BME280;63804;53.120;8.764;2023-02-08T01:27:43;104103.69;;;0.52;44.54
54920;BME280;63804;53.120;8.764;2023-02-08T01:30:09;104112.59;;;0.16;45.38
54920;BME280;63804;53.120;8.764;2023-02-08T01:32:35;104115.63;;;0.06;45.62
54920;BME280;63804;53.120;8.764;2023-02-08T01:35:01;104119.47;;;0.18;45.50
54920;BME280;63804;53.120;8.764;2023-02-08T01:37:27;104111.56;;;0.53;44.72
54920;BME280;63804;53.120;8.764;2023-02-08T01:39:52;104116.84;;;0.25;45.04
54920;BME280;63804;53.120;8.764;2023-02-08T01:42:19;104115.44;;;-0.07;45.70
54920;BME280;63804;53.120;8.764;2023-02-08T01:47:52;104113.28;;;0.18;45.33
54920;BME280;63804;53.120;8.764;2023-02-08T01:50:20;104112.03;;;0.57;44.52
54920;BME280;63804;53.120;8.764;2023-02-08T01:52:46;104117.34;;;0.72;44.16
54920;BME280;63804;53.120;8.764;2023-02-08T01:55:20;104113.28;;;0.83;43.50
54920;BME280;63804;53.120;8.764;2023-02-08T01:57:51;104117.91;;;0.89;43.30
54920;BME280;63804;53.120;8.764;2023-02-08T02:00:20;104123.28;;;0.89;43.33
54920;BME280;63804;53.120;8.764;2023-02-08T02:02:47;104117.78;;;0.75;43.59
54920;BME280;63804;53.120;8.764;2023-02-08T02:05:16;104116.50;;;0.50;43.90
54920;BME280;63804;53.120;8.764;2023-02-08T02:07:42;104113.66;;;0.15;44.58
54920;BME280;63804;53.120;8.764;2023-02-08T02:12:41;104122.03;;;0.63;43.89
54920;BME280;63804;53.120;8.764;2023-02-08T02:15:08;104108.72;;;0.18;44.46
54920;BME280;63804;53.120;8.764;2023-02-08T02:17:35;104110.47;;;-0.25;45.53
54920;BME280;63804;53.120;8.764;2023-02-08T02:25:57;104100.19;;;-0.37;45.73
54920;BME280;63804;53.120;8.764;2023-02-08T02:37:30;104089.50;;;0.36;43.50
54920;BME280;63804;53.120;8.764;2023-02-08T02:45:35;104089.91;;;0.18;44.18
54920;BME280;63804;53.120;8.764;2023-02-08T02:50:44;104107.88;;;-0.48;45.58
54920;BME280;63804;53.120;8.764;2023-02-08T02:53:27;104104.09;;;-0.54;45.96
54920;BME280;63804;53.120;8.764;2023-02-08T02:56:11;104099.09;;;-0.57;45.80
54920;BME280;63804;53.120;8.764;2023-02-08T02:58:39;104097.69;;;-0.38;45.47
54920;BME280;63804;53.120;8.764;2023-02-08T03:01:06;104106.81;;;-0.03;44.63
54920;BME280;63804;53.120;8.764;2023-02-08T03:03:33;104102.59;;;-0.42;45.04
54920;BME280;63804;53.120;8.764;2023-02-08T03:06:22;104109.47;;;-0.54;45.11
54920;BME280;63804;53.120;8.764;2023-02-08T03:09:24;104112.41;;;-0.34;45.21
54920;BME280;63804;53.120;8.764;2023-02-08T03:12:14;104107.56;;;0.06;43.90
54920;BME280;63804;53.120;8.764;2023-02-08T03:17:48;104107.38;;;-0.82;45.24
54920;BME280;63804;53.120;8.764;2023-02-08T03:20:31;104109.41;;;-0.84;45.63
54920;BME280;63804;53.120;8.764;2023-02-08T03:22:59;104110.34;;;-0.77;45.60
54920;BME280;63804;53.120;8.764;2023-02-08T03:25:38;104113.88;;;-0.61;45.22
54920;BME280;63804;53.120;8.764;2023-02-08T03:31:17;104119.03;;;-0.75;45.62
54920;BME280;63804;53.120;8.764;2023-02-08T03:36:32;104120.81;;;-0.67;45.68
54920;BME280;63804;53.120;8.764;2023-02-08T03:39:02;104120.25;;;-0.32;44.80
54920;BME280;63804;53.120;8.764;2023-02-08T03:41:34;104119.88;;;0.00;43.90
54920;BME280;63804;53.120;8.764;2023-02-08T03:44:07;104131.94;;;-0.55;44.51
54920;BME280;63804;53.120;8.764;2023-02-08T03:46:39;104124.94;;;-0.94;45.46
54920;BME280;63804;53.120;8.764;2023-02-08T03:49:17;104130.91;;;-1.07;45.48
54920;BME280;63804;53.120;8.764;2023-02-08T03:51:45;104131.44;;;-1.12;45.71
54920;BME280;63804;53.120;8.764;2023-02-08T03:54:16;104137.09;;;-1.06;45.69
54920;BME280;63804;53.120;8.764;2023-02-08T03:56:56;104130.84;;;-0.99;45.58
54920;BME280;63804;53.120;8.764;2023-02-08T03:59:28;104139.09;;;-0.85;45.63
54920;BME280;63804;53.120;8.764;2023-02-08T04:02:06;104143.13;;;-0.37;44.60
54920;BME280;63804;53.120;8.764;2023-02-08T04:04:43;104140.91;;;-0.18;44.17
54920;BME280;63804;53.120;8.764;2023-02-08T04:07:09;104137.75;;;-0.07;43.75
54920;BME280;63804;53.120;8.764;2023-02-08T04:09:35;104136.47;;;-0.56;44.39
54920;BME280;63804;53.120;8.764;2023-02-08T04:12:01;104138.47;;;-0.87;44.89
54920;BME280;63804;53.120;8.764;2023-02-08T04:14:27;104141.75;;;-1.00;45.51
54920;BME280;63804;53.120;8.764;2023-02-08T04:16:53;104134.69;;;-1.01;45.60
54920;BME280;63804;53.120;8.764;2023-02-08T04:19:18;104138.59;;;-1.04;45.51
54920;BME280;63804;53.120;8.764;2023-02-08T04:21:44;104140.72;;;-0.99;45.50
54920;BME280;63804;53.120;8.764;2023-02-08T04:24:10;104139.41;;;-1.03;45.73
54920;BME280;63804;53.120;8.764;2023-02-08T04:26:36;104138.88;;;-0.99;45.49
54920;BME280;63804;53.120;8.764;2023-02-08T04:29:02;104136.97;;;-0.90;45.43
54920;BME280;63804;53.120;8.764;2023-02-08T04:31:28;104132.19;;;-1.03;45.90
54920;BME280;63804;53.120;8.764;2023-02-08T04:33:53;104126.78;;;-0.95;45.66
54920;BME280;63804;53.120;8.764;2023-02-08T04:36:19;104132.03;;;-1.01;45.67
54920;BME280;63804;53.120;8.764;2023-02-08T04:38:45;104129.88;;;-1.06;46.01
54920;BME280;63804;53.120;8.764;2023-02-08T04:41:11;104132.31;;;-0.96;45.64
54920;BME280;63804;53.120;8.764;2023-02-08T04:43:37;104133.53;;;-0.99;45.60
54920;BME280;63804;53.120;8.764;2023-02-08T04:46:02;104130.31;;;-0.94;45.53
54920;BME280;63804;53.120;8.764;2023-02-08T04:48:28;104129.41;;;-0.71;45.42
54920;BME280;63804;53.120;8.764;2023-02-08T04:50:55;104112.69;;;-0.59;44.69
54920;BME280;63804;53.120;8.764;2023-02-08T04:53:23;104117.28;;;-0.82;45.08
54920;BME280;63804;53.120;8.764;2023-02-08T04:55:48;104106.16;;;-0.79;45.28
54920;BME280;63804;53.120;8.764;2023-02-08T04:58:14;104108.78;;;-0.71;45.16
54920;BME280;63804;53.120;8.764;2023-02-08T05:00:40;104114.25;;;-0.64;44.90
54920;BME280;63804;53.120;8.764;2023-02-08T05:03:06;104113.75;;;-0.83;45.30
54920;BME280;63804;53.120;8.764;2023-02-08T05:05:32;104120.63;;;-0.80;45.05
54920;BME280;63804;53.120;8.764;2023-02-08T05:07:58;104121.44;;;-0.80;45.21
54920;BME280;63804;53.120;8.764;2023-02-08T05:10:24;104116.47;;;-0.53;44.89
54920;BME280;63804;53.120;8.764;2023-02-08T05:12:50;104112.03;;;-0.46;44.48
54920;BME280;63804;53.120;8.764;2023-02-08T05:15:16;104116.19;;;-0.28;44.25
54920;BME280;63804;53.120;8.764;2023-02-08T05:17:42;104112.78;;;-0.07;43.85
54920;BME280;63804;53.120;8.764;2023-02-08T05:20:08;104104.63;;;-0.14;43.96
54920;BME280;63804;53.120;8.764;2023-02-08T05:22:35;104106.00;;;-0.33;44.32
54920;BME280;63804;53.120;8.764;2023-02-08T05:25:01;104099.63;;;-0.77;45.29
54920;BME280;63804;53.120;8.764;2023-02-08T05:27:26;104101.53;;;-1.00;45.94
54920;BME280;63804;53.120;8.764;2023-02-08T05:29:52;104103.38;;;-1.01;45.91
54920;BME280;63804;53.120;8.764;2023-02-08T05:32:18;104113.22;;;-0.78;45.46
54920;BME280;63804;53.120;8.764;2023-02-08T05:34:44;104112.25;;;-0.47;45.13
54920;BME280;63804;53.120;8.764;2023-02-08T05:37:10;104103.59;;;-0.13;44.33
54920;BME280;63804;53.120;8.764;2023-02-08T05:39:37;104107.31;;;-0.29;44.37
54920;BME280;63804;53.120;8.764;2023-02-08T05:42:02;104103.16;;;-0.31;44.49
54920;BME280;63804;53.120;8.764;2023-02-08T05:44:28;104101.69;;;-0.34;44.27
54920;BME280;63804;53.120;8.764;2023-02-08T05:46:54;104101.09;;;-0.29;44.15
54920;BME280;63804;53.120;8.764;2023-02-08T05:49:20;104097.94;;;-0.78;44.99
54920;BME280;63804;53.120;8.764;2023-02-08T05:51:46;104084.97;;;-1.04;45.79
54920;BME280;63804;53.120;8.764;2023-02-08T05:54:11;104086.91;;;-0.98;45.74
54920;BME280;63804;53.120;8.764;2023-02-08T05:56:37;104076.94;;;-1.04;45.58
54920;BME280;63804;53.120;8.764;2023-02-08T05:59:03;104081.28;;;-1.26;46.05
54920;BME280;63804;53.120;8.764;2023-02-08T06:01:29;104072.34;;;-1.18;45.89
54920;BME280;63804;53.120;8.764;2023-02-08T06:03:57;104078.00;;;-0.60;44.77
54920;BME280;63804;53.120;8.764;2023-02-08T06:06:24;104071.78;;;-0.90;44.57
54920;BME280;63804;53.120;8.764;2023-02-08T06:08:50;104078.72;;;-1.19;45.24
54920;BME280;63804;53.120;8.764;2023-02-08T06:11:15;104078.59;;;-1.26;45.60
54920;BME280;63804;53.120;8.764;2023-02-08T06:13:44;104074.09;;;-1.25;45.59
54920;BME280;63804;53.120;8.764;2023-02-08T06:16:11;104074.56;;;-1.22;45.77
54920;BME280;63804;53.120;8.764;2023-02-08T06:18:37;104089.94;;;-1.16;45.54
54920;BME280;63804;53.120;8.764;2023-02-08T06:21:03;104094.03;;;-1.28;45.33
54920;BME280;63804;53.120;8.764;2023-02-08T06:23:29;104087.31;;;-1.47;46.09
54920;BME280;63804;53.120;8.764;2023-02-08T06:25:55;104094.41;;;-1.31;45.72
54920;BME280;63804;53.120;8.764;2023-02-08T06:28:21;104080.34;;;-1.33;45.60
54920;BME280;63804;53.120;8.764;2023-02-08T06:30:50;104081.91;;;-1.39;45.93
54920;BME280;63804;53.120;8.764;2023-02-08T06:33:17;104072.81;;;-1.15;45.70
54920;BME280;63804;53.120;8.764;2023-02-08T06:35:49;104079.78;;;-1.05;45.68
54920;BME280;63804;53.120;8.764;2023-02-08T06:38:15;104086.66;;;-0.88;44.98
54920;BME280;63804;53.120;8.764;2023-02-08T06:40:41;104092.16;;;-1.04;45.29
54920;BME280;63804;53.120;8.764;2023-02-08T06:43:07;104094.84;;;-1.04;45.77
54920;BME280;63804;53.120;8.764;2023-02-08T06:45:33;104099.59;;;-0.92;45.60
54920;BME280;63804;53.120;8.764;2023-02-08T06:47:59;104098.91;;;-0.56;44.95
54920;BME280;63804;53.120;8.764;2023-02-08T06:50:25;104097.69;;;-0.38;44.50
54920;BME280;63804;53.120;8.764;2023-02-08T06:52:51;104103.47;;;-0.79;45.23
54920;BME280;63804;53.120;8.764;2023-02-08T06:55:17;104100.31;;;-0.98;45.49
54920;BME280;63804;53.120;8.764;2023-02-08T06:57:43;104107.59;;;-1.06;45.55
54920;BME280;63804;53.120;8.764;2023-02-08T07:00:09;104095.66;;;-1.19;46.16
54920;BME280;63804;53.120;8.764;2023-02-08T07:02:35;104101.22;;;-1.05;45.90
54920;BME280;63804;53.120;8.764;2023-02-08T07:05:01;104103.41;;;-0.71;45.21
54920;BME280;63804;53.120;8.764;2023-02-08T07:07:27;104103.25;;;-0.40;44.23
54920;BME280;63804;53.120;8.764;2023-02-08T07:09:52;104098.63;;;-0.61;44.40
54920;BME280;63804;53.120;8.764;2023-02-08T07:12:18;104092.22;;;-0.75;44.84
54920;BME280;63804;53.120;8.764;2023-02-08T07:14:44;104087.03;;;-0.76;45.01
54920;BME280;63804;53.120;8.764;2023-02-08T07:17:11;104089.63;;;-0.53;44.61
54920;BME280;63804;53.120;8.764;2023-02-08T07:19:37;104093.72;;;-0.42;44.38
54920;BME280;63804;53.120;8.764;2023-02-08T07:22:04;104088.34;;;-0.27;44.08
54920;BME280;63804;53.120;8.764;2023-02-08T07:24:39;104097.50;;;-0.37;43.79
54920;BME280;63804;53.120;8.764;2023-02-08T07:27:08;104104.88;;;-0.83;44.92
54920;BME280;63804;53.120;8.764;2023-02-08T07:29:35;104106.59;;;-0.67;44.86
54920;BME280;63804;53.120;8.764;2023-02-08T07:32:01;104105.63;;;-0.60;45.39
54920;BME280;63804;53.120;8.764;2023-02-08T07:34:28;104098.69;;;-0.24;44.42
54920;BME280;63804;53.120;8.764;2023-02-08T07:36:54;104103.34;;;-0.48;44.80
54920;BME280;63804;53.120;8.764;2023-02-08T07:39:20;104093.06;;;-0.74;45.46
54920;BME280;63804;53.120;8.764;2023-02-08T07:41:46;104087.81;;;-0.67;45.42
54920;BME280;63804;53.120;8.764;2023-02-08T07:44:12;104097.03;;;-0.70;45.61
54920;BME280;63804;53.120;8.764;2023-02-08T07:46:39;104095.66;;;-0.36;45.25
54920;BME280;63804;53.120;8.764;2023-02-08T07:49:05;104092.69;;;-0.26;44.79
54920;BME280;63804;53.120;8.764;2023-02-08T07:51:31;104090.72;;;-0.32;45.16
54920;BME280;63804;53.120;8.764;2023-02-08T07:53:57;104085.94;;;-0.22;45.35
54920;BME280;63804;53.120;8.764;2023-02-08T07:56:23;104090.25;;;-0.06;45.04
54920;BME280;63804;53.120;8.764;2023-02-08T07:58:49;104092.84;;;-0.13;45.18
54920;BME280;63804;53.120;8.764;2023-02-08T08:01:15;104095.47;;;0.17;44.96
54920;BME280;63804;53.120;8.764;2023-02-08T08:03:40;104095.38;;;0.47;44.39
54920;BME280;63804;53.120;8.764;2023-02-08T08:06:06;104089.75;;;0.63;44.15
54920;BME280;63804;53.120;8.764;2023-02-08T08:08:32;104092.69;;;0.68;43.89
54920;BME280;63804;53.120;8.764;2023-02-08T08:10:58;104077.50;;;0.82;43.57
54920;BME280;63804;53.120;8.764;2023-02-08T08:13:24;104085.00;;;0.87;43.62
54920;BME280;63804;53.120;8.764;2023-02-08T08:15:50;104077.59;;;0.96;43.41
54920;BME280;63804;53.120;8.764;2023-02-08T08:18:16;104085.13;;;1.00;43.38
54920;BME280;63804;53.120;8.764;2023-02-08T08:20:42;104086.13;;;0.99;43.35
54920;BME280;63804;53.120;8.764;2023-02-08T08:23:08;104086.75;;;1.01;43.32
54920;BME280;63804;53.120;8.764;2023-02-08T08:25:33;104081.91;;;1.11;43.27
54920;BME280;63804;53.120;8.764;2023-02-08T08:28:00;104082.09;;;1.10;42.97
54920;BME280;63804;53.120;8.764;2023-02-08T08:30:26;104085.03;;;1.15;43.32
54920;BME280;63804;53.120;8.764;2023-02-08T08:32:52;104088.19;;;1.25;42.80
54920;BME280;63804;53.120;8.764;2023-02-08T08:35:18;104084.09;;;1.36;42.67
54920;BME280;63804;53.120;8.764;2023-02-08T08:37:44;104076.16;;;1.21;43.14
54920;BME280;63804;53.120;8.764;2023-02-08T08:40:10;104072.78;;;1.47;42.81
54920;BME280;63804;53.120;8.764;2023-02-08T08:42:36;104070.75;;;1.56;42.58
54920;BME280;63804;53.120;8.764;2023-02-08T08:45:05;104072.22;;;1.59;42.53
54920;BME280;63804;53.120;8.764;2023-02-08T08:47:31;104071.84;;;1.62;42.43
54920;BME280;63804;53.120;8.764;2023-02-08T08:49:57;104068.09;;;1.63;42.60
54920;BME280;63804;53.120;8.764;2023-02-08T08:52:23;104061.31;;;1.74;42.50
54920;BME280;63804;53.120;8.764;2023-02-08T08:54:48;104063.63;;;1.77;42.41
54920;BME280;63804;53.120;8.764;2023-02-08T08:57:15;104065.66;;;1.75;42.41
54920;BME280;63804;53.120;8.764;2023-02-08T08:59:41;104064.22;;;1.72;42.62
54920;BME280;63804;53.120;8.764;2023-02-08T09:02:11;104065.22;;;1.71;42.96
54920;BME280;63804;53.120;8.764;2023-02-08T09:04:37;104067.78;;;1.86;42.71
54920;BME280;63804;53.120;8.764;2023-02-08T09:07:06;104072.16;;;1.94;42.61
54920;BME280;63804;53.120;8.764;2023-02-08T09:09:32;104069.47;;;1.94;42.44
54920;BME280;63804;53.120;8.764;2023-02-08T09:11:58;104063.47;;;1.92;42.73
54920;BME280;63804;53.120;8.764;2023-02-08T09:14:25;104069.53;;;2.07;42.44
54920;BME280;63804;53.120;8.764;2023-02-08T09:16:51;104068.31;;;2.30;41.95
54920;BME280;63804;53.120;8.764;2023-02-08T09:19:17;104063.78;;;2.37;41.58
54920;BME280;63804;53.120;8.764;2023-02-08T09:21:43;104064.19;;;2.34;41.66
54920;BME280;63804;53.120;8.764;2023-02-08T09:24:09;104063.78;;;2.37;41.88
54920;BME280;63804;53.120;8.764;2023-02-08T09:26:35;104066.91;;;2.47;41.65
54920;BME280;63804;53.120;8.764;2023-02-08T09:29:01;104065.22;;;2.46;41.58
54920;BME280;63804;53.120;8.764;2023-02-08T09:31:30;104070.63;;;2.53;41.49
54920;BME280;63804;53.120;8.764;2023-02-08T09:33:57;104072.31;;;2.60;41.50
54920;BME280;63804;53.120;8.764;2023-02-08T09:36:26;104074.38;;;2.72;41.29
54920;BME280;63804;53.120;8.764;2023-02-08T09:39:04;104077.50;;;2.69;41.24
54920;BME280;63804;53.120;8.764;2023-02-08T09:42:08;104086.63;;;2.81;40.72
54920;BME280;63804;53.120;8.764;2023-02-08T09:47:28;104072.91;;;2.89;40.61
54920;BME280;63804;53.120;8.764;2023-02-08T09:49:59;104077.50;;;2.75;40.66
54920;BME280;63804;53.120;8.764;2023-02-08T09:52:40;104078.31;;;2.83;40.69
54920;BME280;63804;53.120;8.764;2023-02-08T09:57:50;104085.19;;;2.92;40.43
54920;BME280;63804;53.120;8.764;2023-02-08T10:00:31;104084.13;;;2.93;40.37
54920;BME280;63804;53.120;8.764;2023-02-08T10:03:00;104087.88;;;3.05;40.34
54920;BME280;63804;53.120;8.764;2023-02-08T10:05:29;104084.53;;;3.10;40.46
54920;BME280;63804;53.120;8.764;2023-02-08T10:07:55;104073.31;;;3.13;40.42
54920;BME280;63804;53.120;8.764;2023-02-08T10:10:45;104069.97;;;3.18;40.18
54920;BME280;63804;53.120;8.764;2023-02-08T10:29:28;104041.88;;;3.52;38.71
54920;BME280;63804;53.120;8.764;2023-02-08T10:32:10;104048.50;;;3.56;38.85
54920;BME280;63804;53.120;8.764;2023-02-08T10:34:45;104035.38;;;3.66;38.27
54920;BME280;63804;53.120;8.764;2023-02-08T10:39:38;104043.78;;;3.90;37.81
54920;BME280;63804;53.120;8.764;2023-02-08T10:42:11;104036.91;;;3.94;37.87
54920;BME280;63804;53.120;8.764;2023-02-08T10:47:43;104040.81;;;3.98;37.33
54920;BME280;63804;53.120;8.764;2023-02-08T10:50:38;104035.16;;;4.06;36.73
54920;BME280;63804;53.120;8.764;2023-02-08T10:53:05;104038.47;;;4.08;37.38
54920;BME280;63804;53.120;8.764;2023-02-08T10:55:32;104034.09;;;4.14;36.96
54920;BME280;63804;53.120;8.764;2023-02-08T10:58:01;104042.75;;;4.23;37.02
54920;BME280;63804;53.120;8.764;2023-02-08T11:00:35;104035.88;;;4.20;36.76
54920;BME280;63804;53.120;8.764;2023-02-08T11:03:15;104046.22;;;4.30;36.24
54920;BME280;63804;53.120;8.764;2023-02-08T11:05:41;104034.75;;;4.35;36.21
54920;BME280;63804;53.120;8.764;2023-02-08T11:08:17;104034.09;;;4.39;35.77
54920;BME280;63804;53.120;8.764;2023-02-08T11:13:20;104048.66;;;4.38;35.89
54920;BME280;63804;53.120;8.764;2023-02-08T11:18:27;104034.88;;;4.46;35.40
54920;BME280;63804;53.120;8.764;2023-02-08T11:20:58;104032.44;;;4.63;34.94
54920;BME280;63804;53.120;8.764;2023-02-08T11:23:28;104023.94;;;4.60;35.04
54920;BME280;63804;53.120;8.764;2023-02-08T11:26:33;104023.22;;;4.71;34.79
54920;BME280;63804;53.120;8.764;2023-02-08T11:31:33;104031.94;;;4.73;34.63
54920;BME280;63804;53.120;8.764;2023-02-08T11:36:29;104021.06;;;4.80;34.27
54920;BME280;63804;53.120;8.764;2023-02-08T11:38:56;104016.81;;;4.91;33.85
54920;BME280;63804;53.120;8.764;2023-02-08T11:41:25;104021.09;;;4.98;33.93
54920;BME280;63804;53.120;8.764;2023-02-08T11:43:58;104018.53;;;5.04;33.88
54920;BME280;63804;53.120;8.764;2023-02-08T11:46:27;104006.94;;;4.96;33.84
54920;BME280;63804;53.120;8.764;2023-02-08T11:48:54;104010.03;;;5.00;33.68
54920;BME280;63804;53.120;8.764;2023-02-08T11:51:32;104011.84;;;5.06;33.13
54920;BME280;63804;53.120;8.764;2023-02-08T11:54:00;104009.81;;;5.01;33.74
54920;BME280;63804;53.120;8.764;2023-02-08T11:56:35;104007.03;;;5.08;33.32
54920;BME280;63804;53.120;8.764;2023-02-08T11:59:18;104003.44;;;5.14;33.72
54920;BME280;63804;53.120;8.764;2023-02-08T12:01:45;103997.09;;;5.20;33.63
54920;BME280;63804;53.120;8.764;2023-02-08T12:04:13;103995.38;;;5.26;33.41
54920;BME280;63804;53.120;8.764;2023-02-08T12:06:58;103988.38;;;5.37;32.92
54920;BME280;63804;53.120;8.764;2023-02-08T12:12:31;103977.59;;;5.49;32.20
54920;BME280;63804;53.120;8.764;2023-02-08T12:15:18;103971.81;;;5.45;31.86
54920;BME280;63804;53.120;8.764;2023-02-08T12:20:36;103968.06;;;5.46;32.68
54920;BME280;63804;53.120;8.764;2023-02-08T12:25:48;103958.91;;;5.59;32.84
54920;BME280;63804;53.120;8.764;2023-02-08T12:36:19;103926.69;;;5.69;31.28
54920;BME280;63804;53.120;8.764;2023-02-08T12:42:15;103920.94;;;5.78;32.54
54920;BME280;63804;53.120;8.764;2023-02-08T12:50:40;103897.72;;;5.93;32.08
54920;BME280;63804;53.120;8.764;2023-02-08T12:53:33;103895.72;;;6.01;32.32
54920;BME280;63804;53.120;8.764;2023-02-08T12:56:07;103886.66;;;5.95;32.58
54920;BME280;63804;53.120;8.764;2023-02-08T12:58:43;103884.75;;;5.96;32.40
54920;BME280;63804;53.120;8.764;2023-02-08T13:01:33;103884.66;;;6.02;32.64
54920;BME280;63804;53.120;8.764;2023-02-08T13:04:07;103876.88;;;6.06;32.75
54920;BME280;63804;53.120;8.764;2023-02-08T13:06:40;103879.84;;;6.16;32.60
54920;BME280;63804;53.120;8.764;2023-02-08T13:09:21;103864.16;;;6.06;32.43
54920;BME280;63804;53.120;8.764;2023-02-08T13:11:56;103852.97;;;6.03;32.42
54920;BME280;63804;53.120;8.764;2023-02-08T13:14:32;103862.25;;;6.19;32.50
54920;BME280;63804;53.120;8.764;2023-02-08T13:17:04;103856.94;;;6.12;32.67
54920;BME280;63804;53.120;8.764;2023-02-08T13:19:48;103859.53;;;6.19;32.85
54920;BME280;63804;53.120;8.764;2023-02-08T13:22:15;103847.19;;;6.23;32.68
54920;BME280;63804;53.120;8.764;2023-02-08T13:24:44;103839.75;;;6.18;32.61
54920;BME280;63804;53.120;8.764;2023-02-08T13:27:20;103835.13;;;6.19;32.58
54920;BME280;63804;53.120;8.764;2023-02-08T13:29:49;103827.09;;;6.24;32.51
54920;BME280;63804;53.120;8.764;2023-02-08T13:32:24;103848.22;;;6.34;32.60
54920;BME280;63804;53.120;8.764;2023-02-08T13:35:27;103829.34;;;6.15;32.79
54920;BME280;63804;53.120;8.764;2023-02-08T13:38:00;103817.34;;;6.11;32.81
54920;BME280;63804;53.120;8.764;2023-02-08T13:40:30;103825.59;;;6.16;32.74
54920;BME280;63804;53.120;8.764;2023-02-08T13:43:03;103814.00;;;6.21;32.68
54920;BME280;63804;53.120;8.764;2023-02-08T13:45:32;103819.19;;;6.34;32.85
54920;BME280;63804;53.120;8.764;2023-02-08T13:48:01;103828.97;;;6.35;33.04
54920;BME280;63804;53.120;8.764;2023-02-08T13:53:03;103820.53;;;5.96;32.82
54920;BME280;63804;53.120;8.764;2023-02-08T13:58:02;103804.59;;;6.23;32.57
54920;BME280;63804;53.120;8.764;2023-02-08T14:03:29;103804.19;;;6.43;32.81
54920;BME280;63804;53.120;8.764;2023-02-08T14:06:13;103800.81;;;6.36;31.58
54920;BME280;63804;53.120;8.764;2023-02-08T14:08:51;103807.50;;;6.45;32.17
54920;BME280;63804;53.120;8.764;2023-02-08T14:11:43;103805.84;;;6.44;31.88
54920;BME280;63804;53.120;8.764;2023-02-08T14:14:21;103801.72;;;6.42;32.33
54920;BME280;63804;53.120;8.764;2023-02-08T14:19:31;103795.78;;;6.57;32.64
54920;BME280;63804;53.120;8.764;2023-02-08T14:22:01;103798.06;;;6.48;32.69
54920;BME280;63804;53.120;8.764;2023-02-08T14:24:31;103791.81;;;6.36;32.68
54920;BME280;63804;53.120;8.764;2023-02-08T14:30:01;103787.72;;;6.33;33.17
54920;BME280;63804;53.120;8.764;2023-02-08T14:32:30;103784.28;;;6.38;33.35
54920;BME280;63804;53.120;8.764;2023-02-08T14:35:19;103790.53;;;6.38;33.36
54920;BME280;63804;53.120;8.764;2023-02-08T14:37:46;103789.84;;;6.31;33.76
54920;BME280;63804;53.120;8.764;2023-02-08T14:45:34;103776.16;;;6.38;33.87
54920;BME280;63804;53.120;8.764;2023-02-08T14:48:17;103776.00;;;6.32;34.02
54920;BME280;63804;53.120;8.764;2023-02-08T14:56:31;103774.06;;;6.16;34.61
54920;BME280;63804;53.120;8.764;2023-02-08T14:59:05;103762.47;;;6.21;34.56
54920;BME280;63804;53.120;8.764;2023-02-08T15:01:54;103763.22;;;6.16;34.94
54920;BME280;63804;53.120;8.764;2023-02-08T15:04:21;103752.38;;;6.16;34.80
54920;BME280;63804;53.120;8.764;2023-02-08T15:09:35;103753.19;;;6.05;34.88
54920;BME280;63804;53.120;8.764;2023-02-08T15:14:33;103742.13;;;5.94;35.09
54920;BME280;63804;53.120;8.764;2023-02-08T15:17:00;103737.63;;;6.00;34.64